sensor_id;sensor_type;location;lat;lon;timestamp;pressure;altitude;pressure_sealevel;temperature;humidity
77041;BME280;65974;42.664;23.264;2024-03-07T00:01:32;94184.81;;;7.42;100.00
77041;BME280;65974;42.664;23.264;2024-03-07T00:03:58;94178.72;;;7.38;100.00
77041;BME280;65974;42.664;23.264;2024-03-07T00:06:23;94178.34;;;7.40;100.00
77041;BME280;65974;42.664;23.264;2024-03-07T00:08:49;94170.41;;;7.40;100.00
77041;BME280;65974;42.664;23.264;2024-03-07T00:11:14;94175.72;;;7.40;100.00
77041;BME280;65974;42.664;23.264;2024-03-07T00:13:40;94176.50;;;7.44;100.00
77041;BME280;65974;42.664;23.264;2024-03-07T00:16:05;94173.53;;;7.49;100.00
77041;BME280;65974;42.664;23.264;2024-03-07T00:18:31;94167.50;;;7.52;100.00
77041;BME280;65974;42.664;23.264;2024-03-07T00:20:56;94161.09;;;7.53;100.00
77041;BME280;65974;42.664;23.264;2024-03-07T00:23:22;94160.75;;;7.58;100.00
77041;BME280;65974;42.664;23.264;2024-03-07T00:25:47;94153.16;;;7.56;100.00
77041;BME280;65974;42.664;23.264;2024-03-07T00:28:16;94158.44;;;7.53;100.00
77041;BME280;65974;42.664;23.264;2024-03-07T00:30:43;94150.50;;;7.53;100.00
77041;BME280;65974;42.664;23.264;2024-03-07T00:33:11;94159.91;;;7.50;100.00
77041;BME280;65974;42.664;23.264;2024-03-07T00:35:37;94167.91;;;7.54;100.00
77041;BME280;65974;42.664;23.264;2024-03-07T00:38:03;94156.94;;;7.55;100.00
77041;BME280;65974;42.664;23.264;2024-03-07T00:40:29;94163.03;;;7.56;100.00
77041;BME280;65974;42.664;23.264;2024-03-07T00:42:55;94160.28;;;7.49;100.00
77041;BME280;65974;42.664;23.264;2024-03-07T00:45:20;94156.19;;;7.55;100.00
77041;BME280;65974;42.664;23.264;2024-03-07T00:47:47;94155.41;;;7.54;100.00
77041;BME280;65974;42.664;23.264;2024-03-07T00:50:13;94149.72;;;7.52;100.00
77041;BME280;65974;42.664;23.264;2024-03-07T00:52:39;94150.88;;;7.55;100.00
77041;BME280;65974;42.664;23.264;2024-03-07T00:55:06;94141.47;;;7.61;100.00
77041;BME280;65974;42.664;23.264;2024-03-07T00:57:33;94139.56;;;7.58;100.00
77041;BME280;65974;42.664;23.264;2024-03-07T01:00:01;94124.38;;;7.55;100.00
77041;BME280;65974;42.664;23.264;2024-03-07T01:02:26;94133.78;;;7.49;100.00
77041;BME280;65974;42.664;23.264;2024-03-07T01:04:52;94126.22;;;7.47;100.00
77041;BME280;65974;42.664;23.264;2024-03-07T01:07:18;94132.22;;;7.41;100.00
77041;BME280;65974;42.664;23.264;2024-03-07T01:09:44;94125.38;;;7.40;100.00
77041;BME280;65974;42.664;23.264;2024-03-07T01:12:10;94122.00;;;7.43;100.00
77041;BME280;65974;42.664;23.264;2024-03-07T01:14:36;94124.25;;;7.41;100.00
77041;BME280;65974;42.664;23.264;2024-03-07T01:17:02;94122.44;;;7.48;100.00
77041;BME280;65974;42.664;23.264;2024-03-07T01:19:28;94126.22;;;7.47;100.00
77041;BME280;65974;42.664;23.264;2024-03-07T01:21:54;94119.00;;;7.48;100.00
77041;BME280;65974;42.664;23.264;2024-03-07T01:24:19;94123.16;;;7.45;100.00
77041;BME280;65974;42.664;23.264;2024-03-07T01:26:46;94131.53;;;7.47;100.00
77041;BME280;65974;42.664;23.264;2024-03-07T01:29:11;94116.72;;;7.43;100.00
77041;BME280;65974;42.664;23.264;2024-03-07T01:31:37;94119.00;;;7.48;100.00
77041;BME280;65974;42.664;23.264;2024-03-07T01:34:02;94117.41;;;7.36;100.00
77041;BME280;65974;42.664;23.264;2024-03-07T01:36:28;94113.13;;;7.25;100.00
77041;BME280;65974;42.664;23.264;2024-03-07T01:38:54;94112.75;;;7.26;100.00
77041;BME280;65974;42.664;23.264;2024-03-07T01:41:19;94107.16;;;7.35;100.00
77041;BME280;65974;42.664;23.264;2024-03-07T01:43:45;94109.41;;;7.33;100.00
77041;BME280;65974;42.664;23.264;2024-03-07T01:46:12;94118.09;;;7.30;100.00
77041;BME280;65974;42.664;23.264;2024-03-07T01:48:38;94121.13;;;7.32;100.00
77041;BME280;65974;42.664;23.264;2024-03-07T01:51:06;94126.47;;;7.35;100.00
77041;BME280;65974;42.664;23.264;2024-03-07T01:53:32;94130.25;;;7.34;100.00
77041;BME280;65974;42.664;23.264;2024-03-07T01:55:59;94129.47;;;7.30;100.00
77041;BME280;65974;42.664;23.264;2024-03-07T01:58:25;94139.97;;;7.23;100.00
77041;BME280;65974;42.664;23.264;2024-03-07T02:00:51;94137.63;;;7.18;100.00
77041;BME280;65974;42.664;23.264;2024-03-07T02:03:17;94138.69;;;7.10;100.00
77041;BME280;65974;42.664;23.264;2024-03-07T02:05:43;94135.25;;;7.06;100.00
77041;BME280;65974;42.664;23.264;2024-03-07T02:08:08;94125.34;;;6.99;100.00
77041;BME280;65974;42.664;23.264;2024-03-07T02:10:34;94119.38;;;7.06;100.00
77041;BME280;65974;42.664;23.264;2024-03-07T02:12:59;94115.22;;;7.09;100.00
77041;BME280;65974;42.664;23.264;2024-03-07T02:15:26;94102.03;;;7.12;100.00
77041;BME280;65974;42.664;23.264;2024-03-07T02:17:53;94102.03;;;7.16;100.00
77041;BME280;65974;42.664;23.264;2024-03-07T02:20:18;94100.94;;;7.17;100.00
77041;BME280;65974;42.664;23.264;2024-03-07T02:22:44;94102.88;;;7.20;100.00
77041;BME280;65974;42.664;23.264;2024-03-07T02:25:09;94104.41;;;7.24;100.00
77041;BME280;65974;42.664;23.264;2024-03-07T02:27:36;94113.16;;;7.28;100.00
77041;BME280;65974;42.664;23.264;2024-03-07T02:30:02;94115.75;;;7.25;100.00
77041;BME280;65974;42.664;23.264;2024-03-07T02:32:27;94112.63;;;7.16;100.00
77041;BME280;65974;42.664;23.264;2024-03-07T02:34:53;94120.13;;;7.07;100.00
77041;BME280;65974;42.664;23.264;2024-03-07T02:37:18;94127.69;;;7.04;100.00
77041;BME280;65974;42.664;23.264;2024-03-07T02:39:44;94125.34;;;6.99;100.00
77041;BME280;65974;42.664;23.264;2024-03-07T02:42:10;94123.78;;;6.95;99.67
77041;BME280;65974;42.664;23.264;2024-03-07T02:44:36;94128.28;;;6.91;98.79
77041;BME280;65974;42.664;23.264;2024-03-07T02:47:04;94130.13;;;6.87;97.42
77041;BME280;65974;42.664;23.264;2024-03-07T02:49:30;94121.31;;;6.79;97.56
77041;BME280;65974;42.664;23.264;2024-03-07T02:51:55;94122.84;;;6.80;97.77
77041;BME280;65974;42.664;23.264;2024-03-07T02:54:22;94128.53;;;6.82;97.08
77041;BME280;65974;42.664;23.264;2024-03-07T02:56:48;94116.75;;;6.76;97.91
77041;BME280;65974;42.664;23.264;2024-03-07T02:59:13;94128.91;;;6.81;97.56
77041;BME280;65974;42.664;23.264;2024-03-07T03:01:40;94127.44;;;6.83;98.23
77041;BME280;65974;42.664;23.264;2024-03-07T03:04:07;94121.00;;;6.84;98.63
77041;BME280;65974;42.664;23.264;2024-03-07T03:06:33;94131.63;;;6.88;99.32
77041;BME280;65974;42.664;23.264;2024-03-07T03:08:58;94122.97;;;6.91;99.92
77041;BME280;65974;42.664;23.264;2024-03-07T03:11:24;94132.13;;;6.97;100.00
77041;BME280;65974;42.664;23.264;2024-03-07T03:13:51;94134.75;;;6.97;100.00
77041;BME280;65974;42.664;23.264;2024-03-07T03:16:17;94136.59;;;6.93;100.00
77041;BME280;65974;42.664;23.264;2024-03-07T03:18:42;94149.06;;;6.92;100.00
77041;BME280;65974;42.664;23.264;2024-03-07T03:21:09;94145.97;;;6.83;100.00
77041;BME280;65974;42.664;23.264;2024-03-07T03:23:35;94145.56;;;6.81;100.00
77041;BME280;65974;42.664;23.264;2024-03-07T03:26:01;94145.19;;;6.83;100.00
77041;BME280;65974;42.664;23.264;2024-03-07T03:28:26;94143.31;;;6.83;100.00
77041;BME280;65974;42.664;23.264;2024-03-07T03:30:52;94144.72;;;6.77;100.00
77041;BME280;65974;42.664;23.264;2024-03-07T03:33:18;94156.84;;;6.78;100.00
77041;BME280;65974;42.664;23.264;2024-03-07T03:35:46;94164.25;;;6.66;100.00
77041;BME280;65974;42.664;23.264;2024-03-07T03:38:12;94171.03;;;6.63;100.00
77041;BME280;65974;42.664;23.264;2024-03-07T03:40:38;94151.44;;;6.68;100.00
77041;BME280;65974;42.664;23.264;2024-03-07T03:43:03;94129.38;;;6.57;100.00
77041;BME280;65974;42.664;23.264;2024-03-07T03:45:29;94123.97;;;6.50;100.00
77041;BME280;65974;42.664;23.264;2024-03-07T03:47:55;94132.78;;;6.57;100.00
77041;BME280;65974;42.664;23.264;2024-03-07T03:50:20;94124.09;;;6.60;100.00
77041;BME280;65974;42.664;23.264;2024-03-07T03:52:48;94130.22;;;6.64;100.00
77041;BME280;65974;42.664;23.264;2024-03-07T03:55:14;94130.94;;;6.61;100.00
77041;BME280;65974;42.664;23.264;2024-03-07T03:57:41;94131.50;;;6.48;100.00
77041;BME280;65974;42.664;23.264;2024-03-07T04:00:08;94126.94;;;6.45;100.00
77041;BME280;65974;42.664;23.264;2024-03-07T04:02:44;94128.13;;;6.47;100.00
77041;BME280;65974;42.664;23.264;2024-03-07T04:05:13;94133.81;;;6.49;100.00
77041;BME280;65974;42.664;23.264;2024-03-07T04:07:39;94133.03;;;6.49;100.00
77041;BME280;65974;42.664;23.264;2024-03-07T04:10:06;94127.28;;;6.43;100.00
77041;BME280;65974;42.664;23.264;2024-03-07T04:12:35;94137.56;;;6.48;100.00
77041;BME280;65974;42.664;23.264;2024-03-07T04:15:06;94142.84;;;6.48;100.00
77041;BME280;65974;42.664;23.264;2024-03-07T04:17:33;94139.50;;;6.51;100.00
77041;BME280;65974;42.664;23.264;2024-03-07T04:20:00;94143.47;;;6.38;100.00
77041;BME280;65974;42.664;23.264;2024-03-07T04:22:25;94144.00;;;6.47;100.00
77041;BME280;65974;42.664;23.264;2024-03-07T04:24:53;94145.06;;;6.43;100.00
77041;BME280;65974;42.664;23.264;2024-03-07T04:27:21;94135.94;;;6.40;100.00
77041;BME280;65974;42.664;23.264;2024-03-07T04:29:51;94141.25;;;6.40;100.00
77041;BME280;65974;42.664;23.264;2024-03-07T04:32:17;94138.56;;;6.37;100.00
77041;BME280;65974;42.664;23.264;2024-03-07T04:34:45;94140.38;;;6.33;100.00
77041;BME280;65974;42.664;23.264;2024-03-07T04:37:11;94143.00;;;6.33;100.00
77041;BME280;65974;42.664;23.264;2024-03-07T04:39:40;94132.91;;;6.38;100.00
77041;BME280;65974;42.664;23.264;2024-03-07T04:42:08;94138.50;;;6.33;100.00
77041;BME280;65974;42.664;23.264;2024-03-07T04:44:35;94128.25;;;6.28;100.00
77041;BME280;65974;42.664;23.264;2024-03-07T04:47:02;94128.94;;;6.25;100.00
77041;BME280;65974;42.664;23.264;2024-03-07T04:49:29;94129.63;;;6.22;100.00
77041;BME280;65974;42.664;23.264;2024-03-07T04:51:56;94132.28;;;6.22;100.00
77041;BME280;65974;42.664;23.264;2024-03-07T04:54:23;94135.34;;;6.24;100.00
77041;BME280;65974;42.664;23.264;2024-03-07T04:56:51;94141.88;;;6.30;100.00
77041;BME280;65974;42.664;23.264;2024-03-07T04:59:18;94141.94;;;6.37;100.00
77041;BME280;65974;42.664;23.264;2024-03-07T05:04:14;94147.84;;;6.53;100.00
77041;BME280;65974;42.664;23.264;2024-03-07T05:10:22;94145.22;;;6.57;100.00
77041;BME280;65974;42.664;23.264;2024-03-07T05:16:09;94148.56;;;6.24;100.00
77041;BME280;65974;42.664;23.264;2024-03-07T05:18:35;94151.22;;;5.98;99.95
77041;BME280;65974;42.664;23.264;2024-03-07T05:27:45;94158.72;;;5.96;98.79
77041;BME280;65974;42.664;23.264;2024-03-07T05:30:20;94172.09;;;5.84;96.99
77041;BME280;65974;42.664;23.264;2024-03-07T05:36:25;94164.16;;;5.61;96.13
77041;BME280;65974;42.664;23.264;2024-03-07T05:52:22;94170.56;;;4.42;100.00
77041;BME280;65974;42.664;23.264;2024-03-07T05:58:21;94184.94;;;4.29;100.00
77041;BME280;65974;42.664;23.264;2024-03-07T06:03:35;94188.66;;;4.43;100.00
77041;BME280;65974;42.664;23.264;2024-03-07T06:06:00;94198.88;;;4.45;100.00
77041;BME280;65974;42.664;23.264;2024-03-07T06:08:26;94195.94;;;4.50;100.00
77041;BME280;65974;42.664;23.264;2024-03-07T06:10:52;94190.19;;;4.44;100.00
77041;BME280;65974;42.664;23.264;2024-03-07T06:13:18;94202.44;;;4.71;100.00
77041;BME280;65974;42.664;23.264;2024-03-07T06:15:45;94210.28;;;4.68;100.00
77041;BME280;65974;42.664;23.264;2024-03-07T06:18:12;94210.78;;;4.73;100.00
77041;BME280;65974;42.664;23.264;2024-03-07T06:20:43;94211.41;;;4.86;100.00
77041;BME280;65974;42.664;23.264;2024-03-07T06:23:10;94214.59;;;4.76;100.00
77041;BME280;65974;42.664;23.264;2024-03-07T06:25:37;94217.06;;;4.69;100.00
77041;BME280;65974;42.664;23.264;2024-03-07T06:28:13;94215.28;;;4.73;100.00
77041;BME280;65974;42.664;23.264;2024-03-07T06:30:40;94206.28;;;4.74;100.00
77041;BME280;65974;42.664;23.264;2024-03-07T06:33:06;94213.16;;;4.79;100.00
77041;BME280;65974;42.664;23.264;2024-03-07T06:35:33;94205.44;;;4.89;100.00
77041;BME280;65974;42.664;23.264;2024-03-07T06:38:03;94200.09;;;4.86;100.00
77041;BME280;65974;42.664;23.264;2024-03-07T06:40:29;94198.94;;;4.83;100.00
77041;BME280;65974;42.664;23.264;2024-03-07T06:42:55;94202.41;;;4.87;100.00
77041;BME280;65974;42.664;23.264;2024-03-07T06:45:20;94205.34;;;4.86;100.00
77041;BME280;65974;42.664;23.264;2024-03-07T06:47:46;94207.94;;;4.82;100.00
77041;BME280;65974;42.664;23.264;2024-03-07T06:50:12;94213.22;;;4.82;100.00
77041;BME280;65974;42.664;23.264;2024-03-07T06:52:45;94219.75;;;4.88;100.00
77041;BME280;65974;42.664;23.264;2024-03-07T06:55:16;94217.03;;;4.85;100.00
77041;BME280;65974;42.664;23.264;2024-03-07T06:57:46;94211.91;;;4.92;100.00
77041;BME280;65974;42.664;23.264;2024-03-07T07:00:12;94200.22;;;4.93;100.00
77041;BME280;65974;42.664;23.264;2024-03-07T07:02:40;94213.94;;;4.98;100.00
77041;BME280;65974;42.664;23.264;2024-03-07T07:05:09;94211.78;;;5.04;100.00
77041;BME280;65974;42.664;23.264;2024-03-07T07:07:38;94199.19;;;4.97;100.00
77041;BME280;65974;42.664;23.264;2024-03-07T07:10:04;94197.25;;;5.13;100.00
77041;BME280;65974;42.664;23.264;2024-03-07T07:12:34;94183.31;;;5.13;100.00
77041;BME280;65974;42.664;23.264;2024-03-07T07:15:00;94193.00;;;5.28;100.00
77041;BME280;65974;42.664;23.264;2024-03-07T07:17:25;94201.25;;;5.26;100.00
77041;BME280;65974;42.664;23.264;2024-03-07T07:19:54;94203.22;;;5.29;100.00
77041;BME280;65974;42.664;23.264;2024-03-07T07:22:21;94209.75;;;5.35;100.00
77041;BME280;65974;42.664;23.264;2024-03-07T07:24:47;94199.88;;;5.32;100.00
77041;BME280;65974;42.664;23.264;2024-03-07T07:27:12;94200.00;;;5.39;100.00
77041;BME280;65974;42.664;23.264;2024-03-07T07:29:38;94202.72;;;5.43;100.00
77041;BME280;65974;42.664;23.264;2024-03-07T07:32:05;94197.97;;;5.52;100.00
77041;BME280;65974;42.664;23.264;2024-03-07T07:34:31;94199.00;;;5.47;100.00
77041;BME280;65974;42.664;23.264;2024-03-07T07:36:58;94206.06;;;5.40;100.00
77041;BME280;65974;42.664;23.264;2024-03-07T07:39:24;94200.81;;;5.43;100.00
77041;BME280;65974;42.664;23.264;2024-03-07T07:41:50;94183.56;;;5.49;100.00
77041;BME280;65974;42.664;23.264;2024-03-07T07:44:16;94191.84;;;5.48;100.00
77041;BME280;65974;42.664;23.264;2024-03-07T07:46:41;94183.47;;;5.42;100.00
77041;BME280;65974;42.664;23.264;2024-03-07T07:49:07;94190.56;;;5.38;100.00
77041;BME280;65974;42.664;23.264;2024-03-07T07:51:32;94199.00;;;5.47;100.00
77041;BME280;65974;42.664;23.264;2024-03-07T07:53:59;94193.50;;;5.56;100.00
77041;BME280;65974;42.664;23.264;2024-03-07T07:56:27;94200.38;;;5.61;100.00
77041;BME280;65974;42.664;23.264;2024-03-07T07:58:53;94194.28;;;5.57;100.00
77041;BME280;65974;42.664;23.264;2024-03-07T08:01:19;94214.94;;;5.51;100.00
77041;BME280;65974;42.664;23.264;2024-03-07T08:03:45;94208.72;;;5.63;100.00
77041;BME280;65974;42.664;23.264;2024-03-07T08:06:10;94202.03;;;5.69;100.00
77041;BME280;65974;42.664;23.264;2024-03-07T08:08:36;94208.97;;;5.77;100.00
77041;BME280;65974;42.664;23.264;2024-03-07T08:11:02;94206.03;;;5.82;100.00
77041;BME280;65974;42.664;23.264;2024-03-07T08:13:27;94203.63;;;5.73;99.96
77041;BME280;65974;42.664;23.264;2024-03-07T08:15:53;94210.44;;;5.74;100.00
77041;BME280;65974;42.664;23.264;2024-03-07T08:18:19;94219.97;;;5.79;100.00
77041;BME280;65974;42.664;23.264;2024-03-07T08:20:45;94219.13;;;5.75;100.00
77041;BME280;65974;42.664;23.264;2024-03-07T08:23:11;94220.09;;;5.67;100.00
77041;BME280;65974;42.664;23.264;2024-03-07T08:25:38;94227.06;;;5.75;100.00
77041;BME280;65974;42.664;23.264;2024-03-07T08:28:08;94233.44;;;5.74;100.00
77041;BME280;65974;42.664;23.264;2024-03-07T08:30:35;94237.13;;;5.88;100.00
77041;BME280;65974;42.664;23.264;2024-03-07T08:33:00;94237.63;;;5.94;100.00
77041;BME280;65974;42.664;23.264;2024-03-07T08:35:30;94239.63;;;6.00;99.93
77041;BME280;65974;42.664;23.264;2024-03-07T08:37:56;94239.13;;;5.95;98.79
77041;BME280;65974;42.664;23.264;2024-03-07T08:40:30;94246.22;;;5.91;99.20
77041;BME280;65974;42.664;23.264;2024-03-07T08:43:00;94239.94;;;5.99;98.80
77041;BME280;65974;42.664;23.264;2024-03-07T08:45:27;94244.94;;;6.04;98.97
77041;BME280;65974;42.664;23.264;2024-03-07T08:47:58;94253.66;;;6.04;98.75
77041;BME280;65974;42.664;23.264;2024-03-07T08:50:25;94255.53;;;6.04;98.72
77041;BME280;65974;42.664;23.264;2024-03-07T08:52:51;94252.88;;;6.04;99.53
77041;BME280;65974;42.664;23.264;2024-03-07T08:55:20;94264.41;;;6.15;99.35
77041;BME280;65974;42.664;23.264;2024-03-07T08:57:45;94263.50;;;6.07;99.52
77041;BME280;65974;42.664;23.264;2024-03-07T09:00:13;94258.34;;;6.14;98.49
77041;BME280;65974;42.664;23.264;2024-03-07T09:02:48;94257.56;;;6.14;99.24
77041;BME280;65974;42.664;23.264;2024-03-07T09:05:21;94261.19;;;6.28;100.00
77041;BME280;65974;42.664;23.264;2024-03-07T09:07:53;94261.59;;;6.31;99.23
77041;BME280;65974;42.664;23.264;2024-03-07T09:10:19;94257.41;;;6.26;99.09
77041;BME280;65974;42.664;23.264;2024-03-07T09:12:45;94267.91;;;6.22;98.43
77041;BME280;65974;42.664;23.264;2024-03-07T09:15:11;94265.66;;;6.24;98.86
77041;BME280;65974;42.664;23.264;2024-03-07T09:17:37;94265.34;;;6.26;97.22
77041;BME280;65974;42.664;23.264;2024-03-07T09:20:04;94263.81;;;6.25;97.88
77041;BME280;65974;42.664;23.264;2024-03-07T09:22:34;94264.22;;;6.27;97.02
77041;BME280;65974;42.664;23.264;2024-03-07T09:25:01;94258.91;;;6.27;97.06
77041;BME280;65974;42.664;23.264;2024-03-07T09:27:26;94281.72;;;6.35;97.44
77041;BME280;65974;42.664;23.264;2024-03-07T09:29:52;94263.72;;;6.44;97.29
77041;BME280;65974;42.664;23.264;2024-03-07T09:32:18;94266.66;;;6.39;96.18
77041;BME280;65974;42.664;23.264;2024-03-07T09:34:44;94265.97;;;6.42;97.56
77041;BME280;65974;42.664;23.264;2024-03-07T09:37:11;94272.66;;;6.36;96.24
77041;BME280;65974;42.664;23.264;2024-03-07T09:39:38;94275.72;;;6.38;97.09
77041;BME280;65974;42.664;23.264;2024-03-07T09:42:07;94269.38;;;6.43;97.82
77041;BME280;65974;42.664;23.264;2024-03-07T09:44:38;94278.25;;;6.31;98.14
77041;BME280;65974;42.664;23.264;2024-03-07T09:47:05;94271.72;;;6.25;98.93
77041;BME280;65974;42.664;23.264;2024-03-07T09:49:32;94272.41;;;6.22;99.48
77041;BME280;65974;42.664;23.264;2024-03-07T09:52:06;94264.91;;;6.24;99.57
77041;BME280;65974;42.664;23.264;2024-03-07T09:54:37;94260.47;;;6.28;99.93
77041;BME280;65974;42.664;23.264;2024-03-07T09:57:04;94265.50;;;6.37;100.00
77041;BME280;65974;42.664;23.264;2024-03-07T09:59:35;94265.25;;;6.45;100.00
77041;BME280;65974;42.664;23.264;2024-03-07T10:02:06;94256.72;;;6.55;100.00
77041;BME280;65974;42.664;23.264;2024-03-07T10:04:48;94259.41;;;6.59;100.00
77041;BME280;65974;42.664;23.264;2024-03-07T10:07:17;94253.75;;;6.60;99.99
77041;BME280;65974;42.664;23.264;2024-03-07T10:09:44;94252.75;;;6.68;99.23
77041;BME280;65974;42.664;23.264;2024-03-07T10:12:09;94246.72;;;6.71;98.85
77041;BME280;65974;42.664;23.264;2024-03-07T10:14:57;94244.97;;;6.79;98.66
77041;BME280;65974;42.664;23.264;2024-03-07T10:17:24;94236.56;;;6.73;98.27
77041;BME280;65974;42.664;23.264;2024-03-07T10:19:51;94245.25;;;6.74;98.01
77041;BME280;65974;42.664;23.264;2024-03-07T10:22:18;94241.91;;;6.77;97.33
77041;BME280;65974;42.664;23.264;2024-03-07T10:24:56;94238.50;;;6.76;98.24
77041;BME280;65974;42.664;23.264;2024-03-07T10:27:26;94234.13;;;6.87;97.63
77041;BME280;65974;42.664;23.264;2024-03-07T10:29:53;94235.47;;;6.78;96.16
77041;BME280;65974;42.664;23.264;2024-03-07T10:32:24;94236.66;;;6.80;97.24
77041;BME280;65974;42.664;23.264;2024-03-07T10:34:51;94237.56;;;6.91;97.44
77041;BME280;65974;42.664;23.264;2024-03-07T10:37:36;94241.03;;;6.95;96.54
77041;BME280;65974;42.664;23.264;2024-03-07T10:40:20;94240.22;;;6.91;95.57
77041;BME280;65974;42.664;23.264;2024-03-07T10:42:48;94239.06;;;6.92;95.64
77041;BME280;65974;42.664;23.264;2024-03-07T10:45:20;94234.19;;;6.94;96.63
77041;BME280;65974;42.664;23.264;2024-03-07T10:47:56;94236.91;;;6.98;95.16
77041;BME280;65974;42.664;23.264;2024-03-07T10:59:18;94228.75;;;7.14;93.80
77041;BME280;65974;42.664;23.264;2024-03-07T11:02:15;94224.22;;;7.14;92.48
77041;BME280;65974;42.664;23.264;2024-03-07T11:04:36;94219.69;;;7.15;92.63
77041;BME280;65974;42.664;23.264;2024-03-07T11:07:03;94218.16;;;7.14;92.33
77041;BME280;65974;42.664;23.264;2024-03-07T11:09:31;94217.41;;;7.13;91.86
77041;BME280;65974;42.664;23.264;2024-03-07T11:12:02;94216.31;;;7.18;91.32
77041;BME280;65974;42.664;23.264;2024-03-07T11:14:29;94217.84;;;7.19;91.14
77041;BME280;65974;42.664;23.264;2024-03-07T11:16:57;94215.56;;;7.17;91.06
77041;BME280;65974;42.664;23.264;2024-03-07T11:19:32;94215.84;;;7.09;90.68
77041;BME280;65974;42.664;23.264;2024-03-07T11:22:02;94219.31;;;7.13;90.80
77041;BME280;65974;42.664;23.264;2024-03-07T11:24:29;94214.81;;;7.17;90.85
77041;BME280;65974;42.664;23.264;2024-03-07T11:26:57;94202.09;;;7.29;91.47
77041;BME280;65974;42.664;23.264;2024-03-07T11:29:41;94200.91;;;7.27;90.38
77041;BME280;65974;42.664;23.264;2024-03-07T11:32:11;94204.81;;;7.36;90.74
77041;BME280;65974;42.664;23.264;2024-03-07T11:34:39;94205.63;;;7.40;89.86
77041;BME280;65974;42.664;23.264;2024-03-07T11:37:17;94199.25;;;7.48;90.00
77041;BME280;65974;42.664;23.264;2024-03-07T11:39:46;94196.94;;;7.43;89.69
77041;BME280;65974;42.664;23.264;2024-03-07T11:42:29;94201.16;;;7.48;90.26
77041;BME280;65974;42.664;23.264;2024-03-07T11:44:57;94193.59;;;7.50;90.15
77041;BME280;65974;42.664;23.264;2024-03-07T11:47:34;94199.25;;;7.48;89.28
77041;BME280;65974;42.664;23.264;2024-03-07T11:50:06;94193.16;;;7.44;89.61
77041;BME280;65974;42.664;23.264;2024-03-07T11:52:46;94192.84;;;7.49;89.07
77041;BME280;65974;42.664;23.264;2024-03-07T11:55:12;94200.81;;;7.49;88.77
77041;BME280;65974;42.664;23.264;2024-03-07T11:57:38;94192.47;;;7.51;89.48
77041;BME280;65974;42.664;23.264;2024-03-07T12:00:06;94193.25;;;7.51;89.55
77041;BME280;65974;42.664;23.264;2024-03-07T12:02:39;94187.91;;;7.48;88.92
77041;BME280;65974;42.664;23.264;2024-03-07T12:05:05;94187.88;;;7.44;89.74
77041;BME280;65974;42.664;23.264;2024-03-07T12:07:32;94190.91;;;7.46;89.67
77041;BME280;65974;42.664;23.264;2024-03-07T12:10:02;94187.19;;;7.51;89.90
77041;BME280;65974;42.664;23.264;2024-03-07T12:12:32;94187.94;;;7.51;89.76
77041;BME280;65974;42.664;23.264;2024-03-07T12:14:58;94187.31;;;7.65;90.12
77041;BME280;65974;42.664;23.264;2024-03-07T12:17:24;94181.63;;;7.63;89.45
77041;BME280;65974;42.664;23.264;2024-03-07T12:19:50;94186.44;;;7.54;88.91
77041;BME280;65974;42.664;23.264;2024-03-07T12:22:20;94188.38;;;7.57;89.57
77041;BME280;65974;42.664;23.264;2024-03-07T12:25:00;94178.97;;;7.63;89.83
77041;BME280;65974;42.664;23.264;2024-03-07T12:27:27;94179.06;;;7.73;89.66
77041;BME280;65974;42.664;23.264;2024-03-07T12:29:53;94184.41;;;7.77;89.16
77041;BME280;65974;42.664;23.264;2024-03-07T12:32:19;94183.97;;;7.71;88.33
77041;BME280;65974;42.664;23.264;2024-03-07T12:34:44;94180.56;;;7.71;88.47
77041;BME280;65974;42.664;23.264;2024-03-07T12:37:12;94177.16;;;7.70;88.81
77041;BME280;65974;42.664;23.264;2024-03-07T12:39:42;94182.41;;;7.67;88.93
77041;BME280;65974;42.664;23.264;2024-03-07T12:42:17;94177.84;;;7.64;88.31
77041;BME280;65974;42.664;23.264;2024-03-07T12:44:44;94173.03;;;7.73;89.04
77041;BME280;65974;42.664;23.264;2024-03-07T12:47:16;94179.84;;;7.77;88.01
77041;BME280;65974;42.664;23.264;2024-03-07T12:49:45;94171.88;;;7.74;87.39
77041;BME280;65974;42.664;23.264;2024-03-07T12:52:11;94177.97;;;7.78;88.54
77041;BME280;65974;42.664;23.264;2024-03-07T12:54:41;94183.63;;;7.73;88.12
77041;BME280;65974;42.664;23.264;2024-03-07T12:57:08;94178.38;;;7.80;88.69
77041;BME280;65974;42.664;23.264;2024-03-07T12:59:40;94174.16;;;7.75;88.13
77041;BME280;65974;42.664;23.264;2024-03-07T13:02:09;94174.94;;;7.76;87.46
77041;BME280;65974;42.664;23.264;2024-03-07T13:04:35;94176.47;;;7.77;87.78
77041;BME280;65974;42.664;23.264;2024-03-07T13:07:05;94179.84;;;7.74;87.11
77041;BME280;65974;42.664;23.264;2024-03-07T13:09:32;94182.91;;;7.79;87.49
77041;BME280;65974;42.664;23.264;2024-03-07T13:11:58;94185.81;;;7.67;86.81
77041;BME280;65974;42.664;23.264;2024-03-07T13:14:27;94201.72;;;7.64;87.12
77041;BME280;65974;42.664;23.264;2024-03-07T13:17:01;94203.78;;;7.48;87.77
77041;BME280;65974;42.664;23.264;2024-03-07T13:19:28;94210.19;;;7.10;82.93
77041;BME280;65974;42.664;23.264;2024-03-07T13:21:55;94213.31;;;6.60;82.57
77041;BME280;65974;42.664;23.264;2024-03-07T13:24:22;94218.97;;;6.32;83.69
77041;BME280;65974;42.664;23.264;2024-03-07T13:26:48;94214.09;;;6.11;84.56
77041;BME280;65974;42.664;23.264;2024-03-07T13:29:14;94213.22;;;6.04;85.21
77041;BME280;65974;42.664;23.264;2024-03-07T13:31:43;94211.63;;;5.99;85.83
77041;BME280;65974;42.664;23.264;2024-03-07T13:34:10;94211.91;;;5.94;86.61
77041;BME280;65974;42.664;23.264;2024-03-07T13:36:42;94212.66;;;5.91;87.43
77041;BME280;65974;42.664;23.264;2024-03-07T13:39:12;94210.69;;;5.88;87.34
77041;BME280;65974;42.664;23.264;2024-03-07T13:41:40;94213.75;;;5.90;88.08
77041;BME280;65974;42.664;23.264;2024-03-07T13:44:06;94215.66;;;5.90;88.18
77041;BME280;65974;42.664;23.264;2024-03-07T13:46:32;94217.84;;;5.88;88.06